Time;durP1;ratioP1;P1;durP2;ratioP2;P2;SDS_P1;SDS_P2;PMS_P1;PMS_P2;Temp;Humidity;BMP_temperature;BMP_pressure;BME280_temperature;BME280_humidity;BME280_pressure;Samples;Min_cycle;Max_cycle;Signal;HPM_P1;HPM_P2
2022/08/29 00:02:22;;;;;;;8.82;3.97;;;28.80;56.70;;;;;;5150230;27;20026;-72
2022/08/29 00:04:48;;;;;;;8.15;3.78;;;28.90;56.60;;;;;;5148818;27;20042;-74
2022/08/29 00:07:14;;;;;;;14.85;4.75;;;28.90;56.60;;;;;;5149949;27;20034;-75
2022/08/29 00:09:40;;;;;;;7.20;4.63;;;28.80;56.70;;;;;;5150054;27;20026;-72
2022/08/29 00:12:06;;;;;;;9.73;3.92;;;28.80;56.70;;;;;;5150042;27;20033;-72
2022/08/29 00:14:32;;;;;;;7.57;3.83;;;28.90;56.70;;;;;;5149764;27;20137;-72
2022/08/29 00:16:59;;;;;;;7.45;3.88;;;28.80;56.70;;;;;;5149969;27;20130;-72
2022/08/29 00:19:26;;;;;;;10.52;4.40;;;28.80;56.70;;;;;;5148787;27;20034;-72
2022/08/29 00:21:52;;;;;;;8.48;4.82;;;28.70;56.60;;;;;;5149211;27;20201;-72
2022/08/29 00:24:19;;;;;;;8.00;4.60;;;28.70;56.70;;;;;;5135660;27;20039;-72
2022/08/29 00:26:45;;;;;;;8.20;4.18;;;28.80;56.80;;;;;;5135778;27;20027;-73
2022/08/29 00:29:11;;;;;;;11.30;4.22;;;28.60;56.80;;;;;;5136129;27;20133;-72
2022/08/29 00:31:37;;;;;;;6.47;4.05;;;28.60;56.90;;;;;;5135859;27;20418;-72
2022/08/29 00:34:03;;;;;;;9.88;4.60;;;28.60;56.90;;;;;;5135757;27;20035;-72
2022/08/29 00:36:29;;;;;;;11.00;4.28;;;28.70;57.00;;;;;;5136012;27;20513;-72
2022/08/29 00:38:55;;;;;;;12.50;4.32;;;28.60;57.20;;;;;;5134499;27;20053;-72
2022/08/29 00:41:21;;;;;;;9.18;4.00;;;28.50;57.10;;;;;;5135585;27;20462;-72
2022/08/29 00:43:47;;;;;;;8.85;4.22;;;28.60;57.10;;;;;;5134583;27;20110;-72
2022/08/29 00:46:31;;;;;;;7.80;4.40;;;28.70;57.10;;;;;;5135613;27;20106;-74
2022/08/29 00:49:02;;;;;;;9.85;4.20;;;28.60;57.00;;;;;;5135723;27;20142;-72
2022/08/29 00:51:29;;;;;;;9.13;3.67;;;28.60;57.10;;;;;;5135585;27;20023;-72
2022/08/29 00:54:05;;;;;;;8.52;4.38;;;28.70;57.10;;;;;;5135396;27;20027;-72
2022/08/29 00:56:33;;;;;;;7.70;4.28;;;28.60;57.00;;;;;;5135335;27;20027;-74
2022/08/29 00:59:22;;;;;;;8.43;4.05;;;28.70;57.00;;;;;;5135509;27;20499;-74
2022/08/29 01:01:48;;;;;;;9.77;4.55;;;28.70;57.00;;;;;;5135452;27;20027;-72
2022/08/29 01:04:15;;;;;;;11.20;4.00;;;28.60;56.90;;;;;;5135322;27;20382;-74
2022/08/29 01:06:42;;;;;;;11.90;4.93;;;28.60;57.10;;;;;;5135107;27;20041;-74
2022/08/29 01:09:08;;;;;;;13.60;4.82;;;28.80;57.10;;;;;;5135192;27;20066;-74
2022/08/29 01:14:22;;;;;;;9.25;4.18;;;28.70;56.80;;;;;;5135105;27;20091;-74
2022/08/29 01:16:51;;;;;;;7.28;4.38;;;28.70;56.70;;;;;;5134887;27;20115;-74
2022/08/29 01:19:49;;;;;;;9.43;4.50;;;28.80;56.80;;;;;;5135023;27;20031;-74
2022/08/29 01:22:33;;;;;;;7.25;4.13;;;28.60;56.80;;;;;;5134949;27;20053;-75
2022/08/29 01:25:04;;;;;;;7.82;4.28;;;28.70;56.80;;;;;;5133571;27;20459;-74
2022/08/29 01:27:33;;;;;;;5.93;4.55;;;28.80;56.80;;;;;;5134724;27;20043;-74
2022/08/29 01:29:59;;;;;;;12.40;4.78;;;28.70;56.80;;;;;;5134637;27;20027;-74
2022/08/29 01:32:25;;;;;;;10.23;5.10;;;28.70;56.80;;;;;;5134511;27;20110;-74
2022/08/29 01:34:52;;;;;;;9.80;4.80;;;28.70;56.90;;;;;;5133766;27;20023;-74
2022/08/29 01:37:19;;;;;;;8.43;4.20;;;28.50;56.90;;;;;;5134630;27;20035;-74
2022/08/29 01:39:45;;;;;;;9.45;4.55;;;28.60;56.90;;;;;;5134512;27;20031;-72
2022/08/29 01:42:19;;;;;;;6.72;4.47;;;28.60;57.10;;;;;;5134275;27;20568;-74
2022/08/29 01:44:58;;;;;;;6.43;4.68;;;28.60;57.10;;;;;;5134127;27;20066;-74
2022/08/29 01:47:28;;;;;;;11.23;4.35;;;28.60;57.20;;;;;;5134286;27;20828;-74
2022/08/29 01:49:55;;;;;;;13.35;4.70;;;28.60;57.20;;;;;;5134354;27;20022;-73
2022/08/29 01:52:21;;;;;;;6.32;4.15;;;28.60;57.20;;;;;;5133968;27;20031;-74
2022/08/29 01:54:47;;;;;;;10.50;4.78;;;28.50;57.20;;;;;;5134281;27;20027;-74
2022/08/29 01:57:15;;;;;;;7.75;4.05;;;28.60;57.20;;;;;;5132746;27;20058;-74
2022/08/29 01:59:42;;;;;;;14.02;4.35;;;28.70;57.20;;;;;;5134271;27;20031;-74
2022/08/29 02:02:10;;;;;;;9.23;4.20;;;28.60;57.10;;;;;;5134265;27;20027;-74
2022/08/29 02:04:39;;;;;;;7.25;4.13;;;28.70;57.20;;;;;;5134302;27;20031;-74
2022/08/29 02:07:05;;;;;;;11.18;4.82;;;28.70;57.20;;;;;;5134379;27;20031;-74
2022/08/29 02:09:31;;;;;;;10.73;5.05;;;28.70;57.20;;;;;;5133716;27;20033;-74
2022/08/29 02:11:57;;;;;;;9.98;4.60;;;28.70;57.20;;;;;;5132752;27;20027;-74
2022/08/29 02:14:25;;;;;;;10.38;4.82;;;28.70;57.10;;;;;;5133930;27;20076;-74
2022/08/29 02:16:51;;;;;;;10.85;4.32;;;28.60;57.10;;;;;;5132710;27;20034;-74
2022/08/29 02:19:18;;;;;;;7.18;4.40;;;28.70;57.10;;;;;;5133472;27;20040;-74
2022/08/29 02:21:44;;;;;;;9.52;4.45;;;28.60;57.20;;;;;;5132416;27;20126;-74
2022/08/29 02:24:10;;;;;;;8.68;5.18;;;28.60;57.30;;;;;;5132672;27;20080;-74
2022/08/29 02:26:36;;;;;;;4.53;3.85;;;28.50;57.30;;;;;;5133921;27;20031;-74
2022/08/29 02:29:03;;;;;;;7.85;4.57;;;28.50;57.40;;;;;;5132448;27;20035;-74
2022/08/29 02:31:29;;;;;;;8.02;4.88;;;28.40;57.40;;;;;;5132648;27;20509;-74
2022/08/29 02:33:55;;;;;;;7.85;4.15;;;28.40;57.50;;;;;;5133568;27;20474;-74
2022/08/29 02:36:22;;;;;;;8.90;4.70;;;28.40;57.50;;;;;;5133424;27;20027;-74
2022/08/29 02:38:49;;;;;;;11.00;4.53;;;28.30;57.60;;;;;;5133648;27;20446;-74
2022/08/29 02:41:15;;;;;;;8.50;4.25;;;28.50;57.60;;;;;;5133533;27;20134;-74
2022/08/29 02:43:42;;;;;;;6.75;4.20;;;28.30;57.60;;;;;;5114249;27;20119;-74
2022/08/29 02:46:12;;;;;;;9.00;4.53;;;28.30;57.70;;;;;;5133136;27;20417;-74
2022/08/29 02:48:38;;;;;;;14.40;4.65;;;28.30;57.80;;;;;;5133186;27;20034;-74
2022/08/29 02:51:04;;;;;;;8.43;4.28;;;28.30;57.90;;;;;;5133480;27;20034;-74
2022/08/29 02:53:31;;;;;;;8.65;4.03;;;28.20;57.90;;;;;;5114221;27;20051;-74
2022/08/29 02:55:57;;;;;;;8.40;4.95;;;28.20;57.90;;;;;;5133497;27;20178;-73
2022/08/29 02:58:23;;;;;;;15.20;4.30;;;28.10;57.90;;;;;;5132017;27;20060;-74
2022/08/29 03:00:50;;;;;;;7.45;4.05;;;28.20;57.90;;;;;;5132996;27;20035;-74
2022/08/29 03:03:16;;;;;;;8.73;5.07;;;28.20;57.90;;;;;;5132903;27;20462;-74
2022/08/29 03:05:42;;;;;;;10.73;5.07;;;28.30;57.90;;;;;;5133506;27;20031;-74
2022/08/29 03:08:12;;;;;;;7.13;3.78;;;28.20;57.90;;;;;;5133140;27;20043;-74
2022/08/29 03:10:39;;;;;;;11.43;4.30;;;28.40;57.90;;;;;;5133120;27;20023;-74
2022/08/29 03:13:06;;;;;;;10.23;4.45;;;28.30;57.80;;;;;;5132992;27;20035;-74
2022/08/29 03:15:32;;;;;;;9.98;4.30;;;28.30;57.80;;;;;;5096904;28;20138;-74
2022/08/29 03:17:58;;;;;;;9.02;3.88;;;28.20;57.80;;;;;;5131811;28;20122;-74
2022/08/29 03:20:24;;;;;;;8.30;3.92;;;28.30;57.80;;;;;;5132922;27;20031;-74
2022/08/29 03:22:52;;;;;;;7.85;4.15;;;28.20;57.80;;;;;;5133065;28;20514;-74
2022/08/29 03:25:20;;;;;;;8.57;4.75;;;28.30;57.80;;;;;;5131848;28;20735;-74
2022/08/29 03:27:46;;;;;;;10.77;5.03;;;28.30;57.80;;;;;;5133110;27;20121;-74
2022/08/29 03:30:15;;;;;;;7.97;4.35;;;28.10;57.80;;;;;;5132753;28;20023;-74
2022/08/29 03:32:41;;;;;;;5.85;4.35;;;28.20;57.90;;;;;;5133027;27;20103;-74
2022/08/29 03:35:10;;;;;;;8.65;4.50;;;28.20;57.90;;;;;;5132777;27;20080;-74
2022/08/29 03:37:36;;;;;;;13.02;4.38;;;28.20;57.80;;;;;;5133185;27;20590;-74
2022/08/29 03:40:05;;;;;;;7.35;3.90;;;28.20;57.80;;;;;;5131502;28;20039;-74
2022/08/29 03:42:31;;;;;;;8.02;4.65;;;28.10;57.90;;;;;;5113576;28;20170;-74
2022/08/29 03:44:57;;;;;;;6.22;4.25;;;28.20;57.90;;;;;;5132710;28;20402;-74
2022/08/29 03:47:23;;;;;;;6.88;4.40;;;28.10;57.90;;;;;;5132836;28;20035;-73
2022/08/29 03:49:49;;;;;;;6.55;4.10;;;28.20;58.00;;;;;;5132789;28;20127;-74
2022/08/29 03:52:15;;;;;;;14.35;4.60;;;28.10;58.10;;;;;;5114265;28;20122;-74
2022/08/29 03:54:41;;;;;;;11.27;4.68;;;28.00;58.10;;;;;;5132925;27;20051;-74
2022/08/29 03:57:08;;;;;;;9.77;4.53;;;28.10;58.10;;;;;;5132611;27;20031;-74
2022/08/29 03:59:35;;;;;;;14.80;4.57;;;28.10;58.10;;;;;;5136641;27;20035;-74
2022/08/29 04:02:01;;;;;;;15.82;4.93;;;28.10;58.10;;;;;;5136580;27;20031;-74
2022/08/29 04:07:13;;;;;;;9.07;4.80;;;28.30;58.10;;;;;;5136315;27;20027;-74
2022/08/29 04:09:40;;;;;;;7.85;4.70;;;28.20;58.00;;;;;;5136391;27;20035;-74
2022/08/29 04:12:11;;;;;;;14.13;4.13;;;28.20;57.90;;;;;;5134972;27;20105;-74
2022/08/29 04:14:38;;;;;;;12.38;4.65;;;28.10;58.00;;;;;;5136346;27;20023;-74
2022/08/29 04:17:04;;;;;;;14.77;4.80;;;28.20;58.00;;;;;;5136207;27;20590;-74
2022/08/29 04:19:31;;;;;;;15.38;5.72;;;28.20;57.90;;;;;;5136183;27;20031;-74
2022/08/29 04:21:57;;;;;;;9.23;4.53;;;28.30;57.90;;;;;;5135988;27;20066;-74
2022/08/29 04:24:24;;;;;;;14.98;5.95;;;28.20;57.80;;;;;;5136342;27;20027;-74
2022/08/29 04:26:50;;;;;;;17.23;5.35;;;28.30;57.70;;;;;;5136202;27;20375;-74
2022/08/29 04:29:16;;;;;;;14.60;4.55;;;28.30;57.60;;;;;;5135719;27;20340;-74
2022/08/29 04:31:43;;;;;;;16.83;5.63;;;28.20;57.50;;;;;;5136083;27;20028;-74
2022/08/29 04:34:11;;;;;;;9.52;4.63;;;28.40;57.50;;;;;;5135883;27;20475;-74
2022/08/29 04:36:46;;;;;;;10.55;4.78;;;28.30;57.40;;;;;;5135858;27;20031;-74
2022/08/29 04:39:13;;;;;;;8.07;4.63;;;28.30;57.30;;;;;;5135860;27;20033;-74
2022/08/29 04:41:41;;;;;;;11.07;5.10;;;28.30;57.30;;;;;;5135801;27;20027;-74
2022/08/29 04:44:09;;;;;;;11.10;4.90;;;28.30;57.20;;;;;;5135890;27;20372;-74
2022/08/29 04:46:35;;;;;;;11.32;4.78;;;28.40;57.10;;;;;;5135858;27;20364;-74
2022/08/29 04:49:02;;;;;;;10.70;4.40;;;28.50;57.10;;;;;;5135500;27;20042;-74
2022/08/29 04:51:28;;;;;;;9.52;4.43;;;28.50;57.20;;;;;;5135453;27;20038;-74
2022/08/29 04:53:55;;;;;;;10.98;5.55;;;28.30;57.10;;;;;;5135489;27;20076;-74
2022/08/29 04:56:21;;;;;;;9.32;4.28;;;28.40;57.10;;;;;;5135418;27;20065;-74
2022/08/29 04:58:49;;;;;;;8.90;4.80;;;28.40;57.10;;;;;;5135638;27;20034;-74
2022/08/29 05:01:19;;;;;;;7.63;4.63;;;28.50;57.00;;;;;;5133911;27;20039;-74
2022/08/29 05:03:46;;;;;;;8.70;4.65;;;28.50;56.90;;;;;;5135418;27;20088;-74
2022/08/29 05:06:15;;;;;;;9.00;5.43;;;28.60;56.90;;;;;;5135106;27;20091;-74
2022/08/29 05:08:42;;;;;;;9.45;4.93;;;28.50;56.90;;;;;;5134801;27;20035;-74
2022/08/29 05:11:12;;;;;;;10.50;4.32;;;28.50;56.90;;;;;;5135193;27;20498;-73
2022/08/29 05:13:38;;;;;;;6.65;4.57;;;28.50;56.90;;;;;;5134279;27;20031;-74
2022/08/29 05:16:08;;;;;;;6.15;4.80;;;28.50;56.90;;;;;;5135149;27;20035;-74
2022/08/29 05:18:34;;;;;;;14.93;4.95;;;28.70;56.80;;;;;;5133935;27;20031;-74
2022/08/29 05:21:01;;;;;;;16.77;4.95;;;28.70;56.80;;;;;;5133472;27;20039;-74
2022/08/29 05:23:27;;;;;;;7.03;4.50;;;28.60;56.70;;;;;;5133623;27;20399;-74
2022/08/29 05:25:55;;;;;;;15.32;4.60;;;28.60;56.70;;;;;;5135069;27;20023;-74
2022/08/29 05:28:21;;;;;;;11.60;4.88;;;28.70;56.70;;;;;;5133380;27;20171;-74
2022/08/29 05:30:48;;;;;;;10.23;5.45;;;28.60;56.70;;;;;;5134462;27;20526;-74
2022/08/29 05:33:14;;;;;;;15.15;5.13;;;28.60;56.70;;;;;;5134464;27;20156;-74
2022/08/29 05:35:40;;;;;;;10.05;4.78;;;28.60;56.70;;;;;;5134425;27;20027;-74
2022/08/29 05:38:06;;;;;;;8.95;4.97;;;28.60;56.70;;;;;;5133089;27;20475;-74
2022/08/29 05:40:32;;;;;;;19.13;4.65;;;28.70;56.70;;;;;;5134084;27;20122;-74
2022/08/29 05:42:58;;;;;;;12.63;4.25;;;28.50;56.80;;;;;;5133143;27;20403;-74
2022/08/29 05:45:24;;;;;;;5.75;4.07;;;28.60;56.70;;;;;;5134455;27;20037;-74
2022/08/29 05:47:50;;;;;;;9.23;3.95;;;28.60;56.70;;;;;;5134549;27;20041;-74
2022/08/29 05:50:16;;;;;;;12.88;3.92;;;28.70;56.60;;;;;;5133130;27;20115;-74
2022/08/29 05:52:43;;;;;;;8.13;4.22;;;28.60;56.60;;;;;;5132896;27;20371;-74
2022/08/29 05:55:10;;;;;;;12.75;4.10;;;28.60;56.50;;;;;;5134310;27;20037;-74
2022/08/29 05:57:36;;;;;;;9.40;4.25;;;28.60;56.50;;;;;;5134610;27;20037;-74
2022/08/29 06:00:05;;;;;;;7.13;4.20;;;28.60;56.60;;;;;;5134009;27;20058;-74
2022/08/29 06:02:38;;;;;;;8.48;4.72;;;28.60;56.60;;;;;;5134309;27;20069;-74
2022/08/29 06:05:05;;;;;;;12.55;4.80;;;28.60;56.70;;;;;;5134044;27;20027;-74
2022/08/29 06:07:32;;;;;;;12.90;4.57;;;28.60;56.60;;;;;;5132924;27;20027;-74
2022/08/29 06:09:58;;;;;;;9.38;4.57;;;28.70;56.50;;;;;;5133965;27;20030;-74
2022/08/29 06:12:24;;;;;;;8.25;4.07;;;28.60;56.50;;;;;;5134210;27;20071;-74
2022/08/29 06:14:50;;;;;;;6.65;3.35;;;28.70;56.50;;;;;;5133870;27;20497;-74
2022/08/29 06:17:16;;;;;;;7.97;4.07;;;28.70;56.50;;;;;;5132742;27;20066;-74
2022/08/29 06:19:42;;;;;;;12.65;4.07;;;28.70;56.50;;;;;;5134086;27;20062;-74
2022/08/29 07:02:36;;;;;;;8.95;4.05;;;28.40;57.60;;;;;;5089450;27;20394;-73
2022/08/29 07:05:03;;;;;;;10.80;3.90;;;28.50;56.90;;;;;;5089821;28;20111;-72
2022/08/29 07:07:29;;;;;;;11.02;3.97;;;28.60;56.90;;;;;;5089763;28;20039;-72
2022/08/29 07:09:55;;;;;;;9.95;4.35;;;28.70;56.90;;;;;;5089289;28;20025;-73
2022/08/29 07:12:22;;;;;;;7.55;4.05;;;28.70;56.80;;;;;;5089308;28;20032;-73
2022/08/29 07:14:48;;;;;;;9.50;4.22;;;28.60;56.80;;;;;;5089408;28;20062;-73
2022/08/29 07:17:14;;;;;;;7.63;4.13;;;28.60;56.80;;;;;;5088970;28;20031;-73
2022/08/29 07:19:40;;;;;;;5.05;3.40;;;28.60;56.80;;;;;;5089087;28;20020;-73
2022/08/29 07:22:07;;;;;;;7.40;2.95;;;28.60;56.80;;;;;;5088976;28;20043;-73
2022/08/29 07:24:33;;;;;;;4.43;3.33;;;28.70;56.80;;;;;;5103949;28;20052;-73
2022/08/29 07:27:00;;;;;;;7.05;3.60;;;28.60;56.80;;;;;;5087654;28;20029;-72
2022/08/29 07:29:26;;;;;;;5.47;3.35;;;28.60;56.70;;;;;;5088126;28;20171;-72
2022/08/29 07:31:52;;;;;;;6.72;3.95;;;28.80;56.80;;;;;;5088837;28;20054;-73
2022/08/29 07:34:19;;;;;;;6.60;3.70;;;28.60;56.70;;;;;;5088934;28;20028;-73
2022/08/29 07:36:45;;;;;;;11.38;3.42;;;28.60;56.70;;;;;;5087378;28;20444;-73
2022/08/29 07:39:16;;;;;;;6.88;3.38;;;28.80;56.70;;;;;;5088889;28;20034;-73
2022/08/29 07:41:43;;;;;;;8.32;2.85;;;28.60;56.70;;;;;;5088550;28;20373;-73
2022/08/29 07:44:10;;;;;;;3.25;2.95;;;28.70;56.70;;;;;;5087208;28;20040;-73
2022/08/29 07:46:37;;;;;;;4.53;3.30;;;28.60;56.70;;;;;;5088440;28;20054;-73
2022/08/29 07:49:03;;;;;;;9.65;3.78;;;28.60;56.70;;;;;;5088604;28;20495;-73
2022/08/29 07:51:30;;;;;;;7.95;4.10;;;28.60;56.60;;;;;;5088525;28;20158;-73
2022/08/29 07:53:56;;;;;;;11.10;3.85;;;28.60;56.70;;;;;;5088880;28;20452;-73
2022/08/29 07:56:26;;;;;;;4.60;2.70;;;28.60;56.70;;;;;;5087141;28;20032;-73
2022/08/29 07:58:53;;;;;;;5.30;2.97;;;28.70;56.70;;;;;;5087277;28;20032;-72
2022/08/29 08:01:19;;;;;;;7.20;3.50;;;28.60;56.70;;;;;;5088220;28;20055;-73
2022/08/29 08:03:45;;;;;;;5.68;3.28;;;28.70;56.70;;;;;;5074182;28;20055;-73
2022/08/29 08:06:12;;;;;;;7.90;3.35;;;28.70;56.80;;;;;;5074717;28;20496;-73
2022/08/29 08:08:38;;;;;;;7.10;3.45;;;28.60;56.80;;;;;;5074655;28;20032;-73
2022/08/29 08:11:06;;;;;;;8.05;3.30;;;28.60;56.80;;;;;;5074610;28;20067;-72
2022/08/29 08:13:32;;;;;;;6.13;3.03;;;28.60;56.80;;;;;;5073562;28;20490;-72
2022/08/29 08:16:01;;;;;;;9.85;3.25;;;28.50;56.80;;;;;;5072457;28;20481;-73
2022/08/29 08:18:28;;;;;;;6.60;3.60;;;28.50;56.80;;;;;;5074471;28;20491;-72
2022/08/29 08:20:54;;;;;;;5.47;2.58;;;28.60;56.70;;;;;;5074489;28;20105;-72
2022/08/29 08:23:20;;;;;;;12.00;3.38;;;28.60;56.80;;;;;;5074394;28;20501;-72
2022/08/29 08:25:46;;;;;;;6.15;2.92;;;28.50;56.80;;;;;;5074577;28;20040;-72
2022/08/29 08:28:13;;;;;;;5.70;3.38;;;28.50;56.80;;;;;;5074314;28;20037;-72
2022/08/29 08:30:41;;;;;;;7.28;2.97;;;28.60;56.90;;;;;;5074240;28;20036;-72
2022/08/29 08:33:07;;;;;;;7.35;3.35;;;28.50;57.00;;;;;;5074140;28;20115;-72
2022/08/29 08:35:34;;;;;;;10.95;3.30;;;28.50;57.00;;;;;;5074547;28;20043;-72
2022/08/29 08:38:01;;;;;;;12.23;2.83;;;28.60;57.00;;;;;;5074182;28;20063;-73
2022/08/29 08:40:29;;;;;;;5.18;3.15;;;28.60;57.00;;;;;;5072963;28;20114;-73
2022/08/29 08:43:00;;;;;;;5.93;3.03;;;28.70;57.00;;;;;;5073766;28;20029;-72
2022/08/29 08:45:38;;;;;;;11.65;3.40;;;28.70;57.00;;;;;;5074086;28;20033;-72
2022/08/29 08:48:13;;;;;;;11.00;3.40;;;28.60;57.00;;;;;;5091571;28;20051;-73
2022/08/29 08:50:42;;;;;;;7.05;3.30;;;28.60;57.00;;;;;;5074822;28;20496;-72
2022/08/29 08:53:34;;;;;;;7.25;2.85;;;28.70;57.10;;;;;;5091594;28;20438;-73
2022/08/29 08:56:10;;;;;;;5.28;2.67;;;28.70;57.00;;;;;;5091704;28;20047;-73
2022/08/29 08:58:53;;;;;;;4.30;3.03;;;28.60;57.00;;;;;;5091573;28;20039;-72
2022/08/29 09:01:45;;;;;;;;;;;28.70;57.00;;;;;;5091687;28;20055;-73
2022/08/29 09:04:30;;;;;;;5.63;2.83;;;28.80;57.00;;;;;;5031385;28;20055;-73
2022/08/29 09:07:08;;;;;;;3.65;2.75;;;28.70;57.00;;;;;;5014824;28;20099;-72
2022/08/29 09:10:10;;;;;;;6.65;3.35;;;28.80;57.00;;;;;;5031433;28;20464;-72
2022/08/29 09:13:08;;;;;;;7.38;2.75;;;28.80;56.90;;;;;;5031307;28;20437;-73
2022/08/29 09:15:43;;;;;;;2.58;2.38;;;28.70;56.80;;;;;;4971751;28;20039;-72
2022/08/29 09:18:14;;;;;;;10.77;2.70;;;28.90;56.80;;;;;;4971907;28;20058;-72
2022/08/29 09:20:41;;;;;;;3.72;3.05;;;28.90;56.80;;;;;;4972098;28;20042;-72
2022/08/29 09:23:40;;;;;;;6.13;3.40;;;28.80;56.80;;;;;;4972275;28;20117;-73
2022/08/29 09:26:07;;;;;;;4.53;3.00;;;28.80;56.70;;;;;;4952771;28;20132;-73
2022/08/29 09:28:33;;;;;;;13.45;3.33;;;28.80;56.70;;;;;;4952324;29;20051;-73
2022/08/29 09:31:18;;;;;;;5.90;2.60;;;28.90;56.70;;;;;;4952825;29;20053;-72
2022/08/29 09:33:51;;;;;;;4.80;3.15;;;28.90;56.60;;;;;;4952567;29;20047;-72
2022/08/29 09:36:43;;;;;;;6.38;2.70;;;29.00;57.20;;;;;;4952735;29;20094;-72
2022/08/29 09:39:13;;;;;;;4.15;2.97;;;29.00;57.20;;;;;;4952404;29;20046;-73
2022/08/29 09:41:39;;;;;;;4.78;2.90;;;28.90;56.50;;;;;;4952311;28;20182;-73
2022/08/29 09:44:10;;;;;;;7.43;3.22;;;29.00;57.10;;;;;;4952472;28;20058;-73
2022/08/29 09:46:36;;;;;;;7.13;3.17;;;28.90;56.50;;;;;;4952559;28;20046;-73
2022/08/29 09:49:02;;;;;;;7.18;2.88;;;28.90;56.50;;;;;;4952202;28;20043;-73
2022/08/29 09:51:34;;;;;;;3.50;2.53;;;29.10;57.00;;;;;;4955763;28;20047;-73
2022/08/29 09:54:26;;;;;;;4.30;2.50;;;29.00;57.00;;;;;;5030432;28;20091;-73
2022/08/29 09:57:03;;;;;;;8.13;3.47;;;29.00;56.90;;;;;;5030146;28;20033;-72
2022/08/29 09:59:38;;;;;;;5.68;2.92;;;29.00;56.90;;;;;;4980798;28;20046;-73
2022/08/29 10:02:28;;;;;;;6.95;3.13;;;29.00;56.90;;;;;;5044476;28;20528;-73
2022/08/29 10:05:01;;;;;;;5.20;3.25;;;29.00;56.80;;;;;;5072257;28;20036;-73
2022/08/29 10:07:29;;;;;;;;;;;29.10;56.80;;;;;;5072785;28;20078;-72
2022/08/29 10:10:33;;;;;;;9.32;3.15;;;29.10;56.80;;;;;;5072284;28;20332;-73
2022/08/29 10:13:20;;;;;;;3.60;3.30;;;29.20;56.80;;;;;;5072351;28;20036;-73
2022/08/29 10:15:52;;;;;;;6.03;2.47;;;29.00;56.70;;;;;;5072064;28;20029;-73
2022/08/29 10:18:37;;;;;;;14.98;3.30;;;29.10;56.70;;;;;;5072185;28;20429;-73
2022/08/29 10:21:45;;;;;;;7.97;3.28;;;29.10;56.70;;;;;;5070953;28;20067;-72
2022/08/29 10:24:40;;;;;;;11.13;2.85;;;29.00;56.60;;;;;;5049718;28;20068;-73
2022/08/29 10:27:20;;;;;;;8.30;3.03;;;29.10;56.70;;;;;;5049783;28;20037;-73
2022/08/29 10:29:55;;;;;;;7.18;3.85;;;29.10;56.60;;;;;;5049739;28;20041;-73
2022/08/29 10:32:44;;;;;;;8.27;2.65;;;29.10;56.50;;;;;;5049611;28;20041;-73
2022/08/29 10:35:31;;;;;;;4.80;2.50;;;29.10;56.60;;;;;;5033164;28;20095;-72
2022/08/29 10:38:02;;;;;;;8.40;3.10;;;29.10;56.60;;;;;;5016191;28;20064;-73
2022/08/29 10:41:12;;;;;;;7.90;2.63;;;29.10;56.50;;;;;;5049609;28;20083;-73
2022/08/29 10:43:58;;;;;;;5.82;2.65;;;29.10;56.50;;;;;;5045966;28;20051;-73
2022/08/29 10:46:33;;;;;;;7.88;3.08;;;29.10;56.60;;;;;;5049463;28;20036;-72
2022/08/29 10:49:07;;;;;;;12.65;2.60;;;29.10;56.60;;;;;;5049320;28;20126;-73
2022/08/29 10:52:06;;;;;;;6.90;3.00;;;29.10;56.60;;;;;;5049817;28;20064;-73
2022/08/29 10:54:36;;;;;;;2.95;2.65;;;29.10;56.60;;;;;;5032592;28;20148;-73
2022/08/29 10:57:04;;;;;;;3.90;3.17;;;29.00;56.60;;;;;;5032888;28;20132;-73
2022/08/29 10:59:59;;;;;;;6.40;2.78;;;29.20;56.60;;;;;;5049386;28;20393;-73
2022/08/29 11:02:52;;;;;;;5.13;3.78;;;29.10;56.60;;;;;;5049384;28;20061;-73
2022/08/29 11:05:24;;;;;;;7.70;2.97;;;29.10;56.60;;;;;;5049313;28;20120;-72
2022/08/29 11:07:59;;;;;;;6.20;3.30;;;29.10;56.60;;;;;;5049203;28;20052;-72
2022/08/29 11:10:31;;;;;;;6.55;3.03;;;29.20;56.50;;;;;;5049188;28;20371;-73
2022/08/29 11:13:30;;;;;;;11.63;3.38;;;29.10;56.50;;;;;;5032626;28;20102;-73
2022/08/29 11:15:59;;;;;;;5.85;2.72;;;29.10;56.60;;;;;;5032583;28;20470;-73
2022/08/29 11:18:43;;;;;;;7.18;3.22;;;29.10;56.50;;;;;;5049193;28;20076;-73
2022/08/29 11:21:21;;;;;;;9.35;3.00;;;29.10;56.50;;;;;;5048972;28;20056;-73
2022/08/29 11:23:47;;;;;;;8.90;3.05;;;29.30;56.40;;;;;;5049188;28;20044;-73
2022/08/29 11:26:35;;;;;;;9.93;2.88;;;29.20;56.40;;;;;;5049111;28;20029;-73
2022/08/29 11:29:13;;;;;;;6.30;2.88;;;29.30;56.50;;;;;;5049150;28;20126;-73
2022/08/29 11:32:17;;;;;;;5.05;3.15;;;29.10;56.50;;;;;;5049113;28;20127;-72
2022/08/29 11:35:04;;;;;;;5.72;2.40;;;29.10;56.50;;;;;;5032424;28;20033;-73
2022/08/29 11:37:42;;;;;;;7.35;3.55;;;29.20;56.50;;;;;;5050371;28;20033;-73
2022/08/29 11:40:14;;;;;;;4.78;3.70;;;29.10;56.50;;;;;;5070156;28;20087;-73
2022/08/29 11:42:44;;;;;;;6.05;3.13;;;29.10;56.50;;;;;;5075510;28;20040;-73
2022/08/29 11:45:13;;;;;;;11.82;3.42;;;29.00;56.60;;;;;;5075276;28;20037;-73
2022/08/29 11:47:56;;;;;;;5.85;3.20;;;29.00;56.60;;;;;;5075115;28;20036;-72
2022/08/29 11:50:33;;;;;;;;;;;29.00;56.70;;;;;;5074326;28;20453;-73
2022/08/29 11:53:21;;;;;;;5.45;3.08;;;29.10;56.70;;;;;;5074897;28;20365;-73
2022/08/29 11:56:14;;;;;;;4.72;2.47;;;29.10;56.70;;;;;;5074834;28;20048;-73
2022/08/29 11:58:45;;;;;;;5.63;3.15;;;29.10;56.70;;;;;;5073796;28;20036;-73
2022/08/29 12:01:24;;;;;;;6.43;2.90;;;29.00;56.70;;;;;;5074801;28;20053;-73
2022/08/29 12:03:53;;;;;;;6.38;2.92;;;29.10;56.70;;;;;;5075239;28;20060;-73
2022/08/29 12:06:22;;;;;;;10.25;3.22;;;29.00;56.70;;;;;;5073531;28;20443;-73
2022/08/29 12:09:07;;;;;;;3.25;2.95;;;29.20;56.70;;;;;;5074443;28;20056;-72
2022/08/29 12:11:57;;;;;;;11.48;2.78;;;29.10;56.70;;;;;;5074711;28;20024;-72
2022/08/29 12:14:47;;;;;;;2.78;2.40;;;29.20;56.70;;;;;;5074690;28;20064;-73
2022/08/29 12:17:23;;;;;;;6.35;3.15;;;29.20;56.70;;;;;;5074531;28;20473;-73
2022/08/29 12:20:09;;;;;;;7.00;2.92;;;29.20;56.70;;;;;;5073019;28;20035;-73
2022/08/29 12:22:50;;;;;;;3.88;3.10;;;29.10;56.70;;;;;;5074732;28;20036;-73
2022/08/29 12:25:43;;;;;;;5.80;2.90;;;29.10;56.70;;;;;;5074325;28;20029;-73
2022/08/29 12:28:29;;;;;;;5.80;2.75;;;29.10;56.70;;;;;;5074558;28;20040;-73
2022/08/29 12:30:58;;;;;;;6.25;2.60;;;29.10;56.60;;;;;;5074844;28;20105;-73
2022/08/29 12:33:35;;;;;;;3.53;2.40;;;29.00;56.70;;;;;;5092039;28;20704;-73
2022/08/29 12:36:25;;;;;;;4.32;2.63;;;29.10;56.70;;;;;;5092083;28;20054;-72
2022/08/29 12:39:00;;;;;;;7.65;3.13;;;29.20;56.70;;;;;;5074900;28;20078;-73
2022/08/29 12:41:45;;;;;;;9.38;2.80;;;29.00;56.70;;;;;;5092061;28;20514;-73
2022/08/29 12:44:15;;;;;;;4.57;2.58;;;29.00;56.80;;;;;;5091884;28;20058;-73
2022/08/29 12:46:52;;;;;;;9.82;2.85;;;29.10;56.80;;;;;;5074831;28;20173;-73
2022/08/29 12:49:21;;;;;;;10.13;2.63;;;29.00;56.80;;;;;;5091208;28;20122;-73
2022/08/29 12:52:00;;;;;;;4.28;2.40;;;29.00;56.80;;;;;;5091818;28;20036;-73
2022/08/29 12:54:34;;;;;;;3.08;2.60;;;29.00;56.90;;;;;;5091646;28;20112;-73
2022/08/29 12:57:01;;;;;;;5.97;3.42;;;29.00;56.90;;;;;;5091688;28;20040;-73
2022/08/29 12:59:28;;;;;;;4.30;3.05;;;29.10;56.90;;;;;;5091675;28;20489;-72
2022/08/29 13:01:56;;;;;;;4.03;2.75;;;29.10;56.90;;;;;;5074519;28;20060;-72
2022/08/29 13:04:25;;;;;;;3.95;3.15;;;29.00;56.90;;;;;;5091294;28;20024;-73
2022/08/29 13:07:03;;;;;;;8.05;2.60;;;29.10;56.80;;;;;;5074437;28;20157;-73
2022/08/29 13:09:41;;;;;;;2.75;2.40;;;29.10;56.30;;;;;;5073512;28;20519;-73
2022/08/29 13:12:20;;;;;;;5.03;3.15;;;29.20;56.80;;;;;;5072034;28;20025;-73
2022/08/29 13:14:47;;;;;;;3.92;2.70;;;29.10;56.90;;;;;;5073596;28;20044;-72
2022/08/29 13:17:15;;;;;;;7.22;2.67;;;29.20;56.90;;;;;;5072183;28;20027;-73
2022/08/29 13:20:19;;;;;;;4.80;2.33;;;29.20;56.90;;;;;;5073075;28;20410;-73
2022/08/29 13:22:46;;;;;;;6.38;2.72;;;29.20;56.80;;;;;;5072009;28;20150;-73
2022/08/29 13:25:15;;;;;;;3.08;2.38;;;29.10;56.80;;;;;;5073469;28;20557;-73
2022/08/29 13:27:42;;;;;;;5.07;2.10;;;29.00;56.80;;;;;;5072913;28;20021;-73
2022/08/29 13:30:19;;;;;;;7.80;2.70;;;29.10;56.80;;;;;;5072830;28;20082;-72
2022/08/29 13:32:49;;;;;;;9.05;2.83;;;29.20;56.80;;;;;;5072981;28;20066;-73
2022/08/29 13:35:17;;;;;;;5.45;2.42;;;29.20;56.80;;;;;;5072824;28;20025;-73
2022/08/29 13:37:45;;;;;;;7.00;2.10;;;29.20;56.80;;;;;;5072992;28;20063;-72
2022/08/29 13:40:35;;;;;;;7.38;2.28;;;29.10;56.80;;;;;;5072677;28;20087;-73
2022/08/29 13:43:04;;;;;;;3.78;1.95;;;29.10;56.80;;;;;;5072781;28;20462;-73
2022/08/29 13:45:30;;;;;;;9.50;2.28;;;29.10;56.80;;;;;;5072936;28;20081;-73
2022/08/29 13:47:58;;;;;;;2.22;2.03;;;29.10;56.80;;;;;;5072726;28;20045;-73
2022/08/29 13:50:25;;;;;;;9.43;2.10;;;29.00;56.90;;;;;;5072777;28;20037;-72
2022/08/29 13:52:54;;;;;;;3.75;2.30;;;29.00;56.90;;;;;;5072589;28;20385;-73
2022/08/29 13:55:20;;;;;;;3.42;2.28;;;29.10;56.90;;;;;;5072733;28;20596;-73